sensor_id;sensor_type;location;lat;lon;timestamp;pressure;altitude;pressure_sealevel;temperature;humidity
11605;BME280;5858;43.076;25.626;2023-03-14T00:45:37;99532.06;;;4.98;60.53
11605;BME280;5858;43.076;25.626;2023-03-14T03:22:50;99418.38;;;3.00;69.43
11605;BME280;5858;43.076;25.626;2023-03-14T03:53:04;99454.13;;;3.04;69.84
11605;BME280;5858;43.076;25.626;2023-03-14T03:55:56;99290.31;;;2.13;69.68
11605;BME280;5858;43.076;25.626;2023-03-14T03:58:56;99413.97;;;3.10;69.57
11605;BME280;5858;43.076;25.626;2023-03-14T04:01:55;99455.34;;;3.31;69.83
11605;BME280;5858;43.076;25.626;2023-03-14T04:04:39;99371.09;;;2.76;69.69
11605;BME280;5858;43.076;25.626;2023-03-14T04:07:22;99361.56;;;2.34;71.38
11605;BME280;5858;43.076;25.626;2023-03-14T04:09:58;99303.69;;;2.21;70.76
11605;BME280;5858;43.076;25.626;2023-03-14T04:12:35;99240.78;;;1.75;70.90
11605;BME280;5858;43.076;25.626;2023-03-14T04:15:07;99349.97;;;2.25;70.82
11605;BME280;5858;43.076;25.626;2023-03-14T04:18:00;99415.47;;;3.03;70.34
11605;BME280;5858;43.076;25.626;2023-03-14T04:20:34;99205.03;;;1.61;69.79
11605;BME280;5858;43.076;25.626;2023-03-14T04:23:01;99415.81;;;2.89;70.35
11605;BME280;5858;43.076;25.626;2023-03-14T04:25:34;99382.63;;;2.75;70.04
11605;BME280;5858;43.076;25.626;2023-03-14T05:11:20;99387.41;;;3.91;60.26
11605;BME280;5858;43.076;25.626;2023-03-14T05:14:45;99335.69;;;3.77;62.13
11605;BME280;5858;43.076;25.626;2023-03-14T05:18:04;99229.56;;;2.83;63.08
11605;BME280;5858;43.076;25.626;2023-03-14T05:31:09;99398.94;;;4.38;63.31
11605;BME280;5858;43.076;25.626;2023-03-14T05:33:48;99340.50;;;4.49;62.33
11605;BME280;5858;43.076;25.626;2023-03-14T05:36:24;99374.25;;;4.94;60.92
11605;BME280;5858;43.076;25.626;2023-03-14T05:39:18;99382.25;;;5.12;59.32
11605;BME280;5858;43.076;25.626;2023-03-14T05:42:26;99255.97;;;4.56;57.34
11605;BME280;5858;43.076;25.626;2023-03-14T05:45:04;99207.00;;;4.32;54.98
11605;BME280;5858;43.076;25.626;2023-03-14T05:47:34;99310.97;;;4.81;54.60
11605;BME280;5858;43.076;25.626;2023-03-14T05:50:10;99247.28;;;4.63;53.92
11605;BME280;5858;43.076;25.626;2023-03-14T05:52:59;99198.75;;;4.63;51.88
11605;BME280;5858;43.076;25.626;2023-03-14T05:55:58;99236.47;;;5.02;50.62
11605;BME280;5858;43.076;25.626;2023-03-14T05:58:35;99209.03;;;5.11;50.68
11605;BME280;5858;43.076;25.626;2023-03-14T06:01:40;99181.16;;;5.25;48.07
11605;BME280;5858;43.076;25.626;2023-03-14T06:04:29;99351.13;;;6.30;47.77
11605;BME280;5858;43.076;25.626;2023-03-14T06:06:58;99379.47;;;6.47;47.75
11605;BME280;5858;43.076;25.626;2023-03-14T06:09:34;99302.88;;;6.17;48.70
11605;BME280;5858;43.076;25.626;2023-03-14T06:12:05;99330.97;;;6.71;48.38
11605;BME280;5858;43.076;25.626;2023-03-14T06:14:33;99199.63;;;6.22;46.05
11605;BME280;5858;43.076;25.626;2023-03-14T06:17:00;99231.81;;;6.95;44.68
11605;BME280;5858;43.076;25.626;2023-03-14T06:19:29;99174.78;;;6.98;43.10
11605;BME280;5858;43.076;25.626;2023-03-14T06:22:31;99215.63;;;7.63;41.08
11605;BME280;5858;43.076;25.626;2023-03-14T06:25:08;99298.66;;;8.40;40.34
11605;BME280;5858;43.076;25.626;2023-03-14T06:27:36;99255.78;;;8.58;39.41
11605;BME280;5858;43.076;25.626;2023-03-14T06:30:17;99181.53;;;8.38;38.17
11605;BME280;5858;43.076;25.626;2023-03-14T06:33:07;99259.88;;;9.38;37.41
11605;BME280;5858;43.076;25.626;2023-03-14T06:35:37;99224.63;;;9.20;36.65
11605;BME280;5858;43.076;25.626;2023-03-14T06:38:07;99244.81;;;9.45;34.96
11605;BME280;5858;43.076;25.626;2023-03-14T06:40:39;99195.41;;;9.27;36.00
11605;BME280;5858;43.076;25.626;2023-03-14T06:43:12;99374.28;;;10.34;36.43
11605;BME280;5858;43.076;25.626;2023-03-14T06:45:39;99249.88;;;9.63;35.01
11605;BME280;5858;43.076;25.626;2023-03-14T06:48:10;99181.16;;;9.11;35.72
11605;BME280;5858;43.076;25.626;2023-03-14T06:51:01;99186.56;;;8.95;36.02
11605;BME280;5858;43.076;25.626;2023-03-14T06:53:32;99159.03;;;9.03;35.95
11605;BME280;5858;43.076;25.626;2023-03-14T06:56:04;99177.31;;;8.83;35.53
11605;BME280;5858;43.076;25.626;2023-03-14T06:58:34;99245.28;;;9.26;35.78
11605;BME280;5858;43.076;25.626;2023-03-14T07:01:01;99254.66;;;9.45;36.46
11605;BME280;5858;43.076;25.626;2023-03-14T07:03:32;99141.38;;;8.94;36.11
11605;BME280;5858;43.076;25.626;2023-03-14T07:06:00;99265.53;;;9.43;35.53
11605;BME280;5858;43.076;25.626;2023-03-14T07:08:27;99316.84;;;10.07;35.69
11605;BME280;5858;43.076;25.626;2023-03-14T07:10:56;99230.94;;;9.73;35.20
11605;BME280;5858;43.076;25.626;2023-03-14T07:13:23;99297.00;;;10.25;34.68
11605;BME280;5858;43.076;25.626;2023-03-14T07:15:50;99272.28;;;10.23;34.89
11605;BME280;5858;43.076;25.626;2023-03-14T07:18:17;99237.56;;;10.00;35.14
11605;BME280;5858;43.076;25.626;2023-03-14T07:20:48;99206.97;;;10.02;35.70
11605;BME280;5858;43.076;25.626;2023-03-14T07:23:17;99315.22;;;10.59;35.73
11605;BME280;5858;43.076;25.626;2023-03-14T07:25:51;99309.22;;;10.71;35.98
11605;BME280;5858;43.076;25.626;2023-03-14T07:28:19;99252.03;;;10.43;34.22
11605;BME280;5858;43.076;25.626;2023-03-14T07:30:46;99276.75;;;10.75;33.44
11605;BME280;5858;43.076;25.626;2023-03-14T07:33:13;99224.06;;;10.31;33.26
11605;BME280;5858;43.076;25.626;2023-03-14T07:35:40;99291.16;;;10.88;32.24
11605;BME280;5858;43.076;25.626;2023-03-14T07:38:08;99248.34;;;10.59;32.54
11605;BME280;5858;43.076;25.626;2023-03-14T07:40:36;99258.38;;;10.71;32.23
11605;BME280;5858;43.076;25.626;2023-03-14T07:43:07;99123.63;;;9.99;32.19
11605;BME280;5858;43.076;25.626;2023-03-14T07:45:34;99246.09;;;10.92;31.99
11605;BME280;5858;43.076;25.626;2023-03-14T07:48:02;99275.41;;;11.15;31.90
11605;BME280;5858;43.076;25.626;2023-03-14T07:50:30;99118.56;;;10.33;32.14
11605;BME280;5858;43.076;25.626;2023-03-14T07:52:59;99181.66;;;10.93;31.63
11605;BME280;5858;43.076;25.626;2023-03-14T07:55:26;99095.50;;;10.47;32.30
11605;BME280;5858;43.076;25.626;2023-03-14T07:57:54;99190.28;;;11.10;32.39
11605;BME280;5858;43.076;25.626;2023-03-14T08:00:25;99249.13;;;11.61;31.56
11605;BME280;5858;43.076;25.626;2023-03-14T08:02:52;99185.91;;;11.45;31.89
11605;BME280;5858;43.076;25.626;2023-03-14T08:05:19;99082.25;;;10.96;31.40
11605;BME280;5858;43.076;25.626;2023-03-14T08:07:46;99148.97;;;11.41;29.81
11605;BME280;5858;43.076;25.626;2023-03-14T08:10:13;99207.19;;;11.96;29.44
11605;BME280;5858;43.076;25.626;2023-03-14T08:12:50;99133.69;;;11.62;29.71
11605;BME280;5858;43.076;25.626;2023-03-14T08:15:19;99068.19;;;11.37;29.54
11605;BME280;5858;43.076;25.626;2023-03-14T08:17:46;99183.66;;;12.26;29.78
11605;BME280;5858;43.076;25.626;2023-03-14T08:20:16;99227.28;;;12.76;29.67
11605;BME280;5858;43.076;25.626;2023-03-14T08:22:45;99112.41;;;12.10;29.51
11605;BME280;5858;43.076;25.626;2023-03-14T08:25:13;99205.09;;;12.95;29.22
11605;BME280;5858;43.076;25.626;2023-03-14T08:27:43;99172.22;;;12.86;27.67
11605;BME280;5858;43.076;25.626;2023-03-14T08:30:12;99212.38;;;13.14;27.82
11605;BME280;5858;43.076;25.626;2023-03-14T08:32:44;99133.59;;;12.94;27.55
11605;BME280;5858;43.076;25.626;2023-03-14T08:35:17;99098.25;;;12.77;27.01
11605;BME280;5858;43.076;25.626;2023-03-14T08:37:44;99125.56;;;13.07;27.25
11605;BME280;5858;43.076;25.626;2023-03-14T08:40:11;99183.75;;;13.68;25.06
11605;BME280;5858;43.076;25.626;2023-03-14T08:42:39;99194.72;;;13.93;26.26
11605;BME280;5858;43.076;25.626;2023-03-14T08:45:08;99187.06;;;14.03;25.04
11605;BME280;5858;43.076;25.626;2023-03-14T08:47:49;99112.59;;;13.57;24.38
11605;BME280;5858;43.076;25.626;2023-03-14T08:50:16;99186.22;;;14.29;25.07
11605;BME280;5858;43.076;25.626;2023-03-14T08:52:48;99143.19;;;14.02;24.87
11605;BME280;5858;43.076;25.626;2023-03-14T08:55:16;99137.16;;;14.13;25.51
11605;BME280;5858;43.076;25.626;2023-03-14T08:57:43;99036.28;;;13.71;24.95
11605;BME280;5858;43.076;25.626;2023-03-14T09:00:16;99057.72;;;14.04;24.99
11605;BME280;5858;43.076;25.626;2023-03-14T09:02:44;99076.72;;;14.23;25.40
11605;BME280;5858;43.076;25.626;2023-03-14T09:05:16;99170.63;;;15.02;22.67
11605;BME280;5858;43.076;25.626;2023-03-14T09:07:43;99156.13;;;15.03;23.08
11605;BME280;5858;43.076;25.626;2023-03-14T09:10:10;99126.66;;;15.08;23.62
11605;BME280;5858;43.076;25.626;2023-03-14T09:12:37;99101.78;;;15.06;22.16
11605;BME280;5858;43.076;25.626;2023-03-14T09:15:05;99084.06;;;14.92;21.86
11605;BME280;5858;43.076;25.626;2023-03-14T09:17:33;99108.72;;;15.27;22.19
11605;BME280;5858;43.076;25.626;2023-03-14T09:20:00;99125.34;;;15.49;22.26
11605;BME280;5858;43.076;25.626;2023-03-14T09:22:40;99048.66;;;15.13;21.58
11605;BME280;5858;43.076;25.626;2023-03-14T09:25:08;98986.53;;;14.83;21.93
11605;BME280;5858;43.076;25.626;2023-03-14T09:27:36;99123.34;;;15.69;22.40
11605;BME280;5858;43.076;25.626;2023-03-14T09:30:08;99123.56;;;15.67;20.77
11605;BME280;5858;43.076;25.626;2023-03-14T09:32:36;99068.25;;;15.52;21.42
11605;BME280;5858;43.076;25.626;2023-03-14T09:35:04;98990.63;;;15.10;20.77
11605;BME280;5858;43.076;25.626;2023-03-14T09:37:33;98997.66;;;15.18;20.20
11605;BME280;5858;43.076;25.626;2023-03-14T09:42:59;99129.28;;;16.39;20.97
11605;BME280;5858;43.076;25.626;2023-03-14T09:45:46;99118.00;;;16.42;20.41
11605;BME280;5858;43.076;25.626;2023-03-14T09:48:17;98964.28;;;15.56;20.29
11605;BME280;5858;43.076;25.626;2023-03-14T09:50:49;99049.47;;;16.25;20.42
11605;BME280;5858;43.076;25.626;2023-03-14T09:53:21;99082.09;;;16.42;21.25
11605;BME280;5858;43.076;25.626;2023-03-14T09:58:53;99083.50;;;16.62;19.95
11605;BME280;5858;43.076;25.626;2023-03-14T10:01:25;99091.22;;;16.77;19.50
11605;BME280;5858;43.076;25.626;2023-03-14T10:03:54;99029.03;;;16.47;22.64
11605;BME280;5858;43.076;25.626;2023-03-14T10:06:24;98922.28;;;15.85;20.64
11605;BME280;5858;43.076;25.626;2023-03-14T10:08:56;98993.94;;;16.47;20.01
11605;BME280;5858;43.076;25.626;2023-03-14T10:11:25;98975.81;;;16.36;20.51
11605;BME280;5858;43.076;25.626;2023-03-14T10:14:04;99008.97;;;16.73;20.67
11605;BME280;5858;43.076;25.626;2023-03-14T10:16:34;98901.72;;;16.02;19.94
11605;BME280;5858;43.076;25.626;2023-03-14T10:19:04;98890.38;;;16.12;19.83
11605;BME280;5858;43.076;25.626;2023-03-14T10:21:39;98956.94;;;16.48;19.34
11605;BME280;5858;43.076;25.626;2023-03-14T10:24:28;98894.63;;;16.19;20.73
11605;BME280;5858;43.076;25.626;2023-03-14T10:27:00;98894.63;;;16.19;21.10
11605;BME280;5858;43.076;25.626;2023-03-14T10:29:29;99020.34;;;17.17;20.14
11605;BME280;5858;43.076;25.626;2023-03-14T10:31:59;98952.13;;;16.80;19.38
11605;BME280;5858;43.076;25.626;2023-03-14T10:34:29;98866.50;;;16.38;19.70
11605;BME280;5858;43.076;25.626;2023-03-14T10:36:58;98967.94;;;17.06;19.47
11605;BME280;5858;43.076;25.626;2023-03-14T10:39:53;98921.59;;;16.79;18.69
11605;BME280;5858;43.076;25.626;2023-03-14T10:42:32;98862.91;;;16.56;17.92
11605;BME280;5858;43.076;25.626;2023-03-14T10:45:01;98871.88;;;16.68;18.21
11605;BME280;5858;43.076;25.626;2023-03-14T10:47:29;98903.84;;;16.95;18.43
11605;BME280;5858;43.076;25.626;2023-03-14T10:50:21;98877.63;;;16.95;19.27
11605;BME280;5858;43.076;25.626;2023-03-14T10:52:49;98803.69;;;16.55;19.70
11605;BME280;5858;43.076;25.626;2023-03-14T10:55:23;98820.41;;;16.87;18.84
11605;BME280;5858;43.076;25.626;2023-03-14T10:57:51;98849.69;;;17.13;18.98
11605;BME280;5858;43.076;25.626;2023-03-14T11:00:20;98851.69;;;17.06;19.43
11605;BME280;5858;43.076;25.626;2023-03-14T11:03:44;98962.72;;;17.98;18.99
11605;BME280;5858;43.076;25.626;2023-03-14T11:10:15;98838.13;;;17.29;18.25
11605;BME280;5858;43.076;25.626;2023-03-14T11:16:50;98864.97;;;17.71;19.49
11605;BME280;5858;43.076;25.626;2023-03-14T11:19:58;98757.06;;;17.06;19.24
11605;BME280;5858;43.076;25.626;2023-03-14T11:23:00;98845.91;;;17.78;18.70
11605;BME280;5858;43.076;25.626;2023-03-14T11:25:44;98759.25;;;17.21;19.67
11605;BME280;5858;43.076;25.626;2023-03-14T11:28:35;98903.72;;;18.29;18.98
11605;BME280;5858;43.076;25.626;2023-03-14T11:31:13;98792.75;;;17.72;19.25
11605;BME280;5858;43.076;25.626;2023-03-14T11:40:12;98719.88;;;17.53;19.48
11605;BME280;5858;43.076;25.626;2023-03-14T11:42:55;98857.84;;;18.55;19.80
11605;BME280;5858;43.076;25.626;2023-03-14T11:45:50;98766.03;;;17.92;19.54
11605;BME280;5858;43.076;25.626;2023-03-14T11:48:28;98792.56;;;18.23;18.91
11605;BME280;5858;43.076;25.626;2023-03-14T11:52:08;98808.50;;;18.37;18.84
11605;BME280;5858;43.076;25.626;2023-03-14T11:54:42;98684.25;;;17.73;18.69
11605;BME280;5858;43.076;25.626;2023-03-14T11:57:27;98686.53;;;17.65;19.71
11605;BME280;5858;43.076;25.626;2023-03-14T12:00:38;98756.78;;;18.21;19.94
11605;BME280;5858;43.076;25.626;2023-03-14T12:03:45;98663.72;;;17.60;19.57
11605;BME280;5858;43.076;25.626;2023-03-14T12:06:38;98696.97;;;17.89;19.96
11605;BME280;5858;43.076;25.626;2023-03-14T12:09:22;98706.19;;;18.05;20.00
11605;BME280;5858;43.076;25.626;2023-03-14T12:12:04;98706.34;;;18.15;20.75
11605;BME280;5858;43.076;25.626;2023-03-14T12:15:04;98732.91;;;18.35;20.62
11605;BME280;5858;43.076;25.626;2023-03-14T12:17:35;98729.03;;;18.31;20.44
11605;BME280;5858;43.076;25.626;2023-03-14T12:20:19;98793.91;;;18.71;20.82
11605;BME280;5858;43.076;25.626;2023-03-14T12:22:52;98693.22;;;18.07;20.71
11605;BME280;5858;43.076;25.626;2023-03-14T12:25:25;98664.00;;;17.92;20.53
11605;BME280;5858;43.076;25.626;2023-03-14T12:28:16;98776.56;;;18.72;20.56
11605;BME280;5858;43.076;25.626;2023-03-14T12:30:48;98627.75;;;17.77;21.21
11605;BME280;5858;43.076;25.626;2023-03-14T12:33:33;98732.41;;;18.38;20.72
11605;BME280;5858;43.076;25.626;2023-03-14T12:36:20;98743.31;;;18.60;20.51
11605;BME280;5858;43.076;25.626;2023-03-14T12:39:25;98650.88;;;18.01;21.47
11605;BME280;5858;43.076;25.626;2023-03-14T12:42:03;98744.72;;;18.63;21.00
11605;BME280;5858;43.076;25.626;2023-03-14T12:44:45;98722.03;;;18.69;20.75
11605;BME280;5858;43.076;25.626;2023-03-14T12:50:16;98742.22;;;18.78;20.66
11605;BME280;5858;43.076;25.626;2023-03-14T12:55:45;98707.13;;;18.49;21.66
11605;BME280;5858;43.076;25.626;2023-03-14T12:58:20;98696.91;;;18.56;21.71
11605;BME280;5858;43.076;25.626;2023-03-14T13:03:51;98559.84;;;17.61;21.46
11605;BME280;5858;43.076;25.626;2023-03-14T13:06:46;98712.22;;;18.63;22.37
11605;BME280;5858;43.076;25.626;2023-03-14T13:22:55;98691.44;;;18.51;22.42
11605;BME280;5858;43.076;25.626;2023-03-14T13:25:42;98602.88;;;17.97;21.92
11605;BME280;5858;43.076;25.626;2023-03-14T13:28:14;98581.75;;;17.77;23.34
11605;BME280;5858;43.076;25.626;2023-03-14T13:30:49;98514.59;;;17.40;22.64
11605;BME280;5858;43.076;25.626;2023-03-14T13:33:20;98624.53;;;18.13;22.79
11605;BME280;5858;43.076;25.626;2023-03-14T13:46:13;98651.19;;;18.43;22.83
11605;BME280;5858;43.076;25.626;2023-03-14T13:49:02;98549.34;;;17.82;23.53
11605;BME280;5858;43.076;25.626;2023-03-14T13:55:00;98646.38;;;18.45;23.88
11605;BME280;5858;43.076;25.626;2023-03-14T13:57:46;98494.94;;;17.45;23.82
11605;BME280;5858;43.076;25.626;2023-03-14T14:00:19;98468.31;;;17.37;23.69
11605;BME280;5858;43.076;25.626;2023-03-14T14:03:03;98628.13;;;18.41;24.31
11605;BME280;5858;43.076;25.626;2023-03-14T14:05:58;98596.31;;;18.09;23.85
11605;BME280;5858;43.076;25.626;2023-03-14T14:08:43;98641.63;;;18.36;24.12
11605;BME280;5858;43.076;25.626;2023-03-14T14:11:43;98537.13;;;17.62;23.27
11605;BME280;5858;43.076;25.626;2023-03-14T14:14:25;98538.88;;;17.69;24.03
11605;BME280;5858;43.076;25.626;2023-03-14T14:17:11;98614.66;;;18.24;24.74
11605;BME280;5858;43.076;25.626;2023-03-14T14:19:53;98459.72;;;17.23;24.58
11605;BME280;5858;43.076;25.626;2023-03-14T14:22:56;98588.69;;;18.06;24.70
11605;BME280;5858;43.076;25.626;2023-03-14T14:25:45;98468.66;;;17.07;24.19
11605;BME280;5858;43.076;25.626;2023-03-14T14:28:47;98565.59;;;17.65;24.40
11605;BME280;5858;43.076;25.626;2023-03-14T14:33:10;98593.13;;;17.62;24.80
11605;BME280;5858;43.076;25.626;2023-03-14T14:38:17;98541.00;;;17.16;24.74
11605;BME280;5858;43.076;25.626;2023-03-14T14:47:17;98436.09;;;16.23;25.08
11605;BME280;5858;43.076;25.626;2023-03-14T14:50:20;98522.00;;;16.66;25.33
11605;BME280;5858;43.076;25.626;2023-03-14T14:56:47;98535.97;;;16.51;25.40
11605;BME280;5858;43.076;25.626;2023-03-14T14:59:26;98512.25;;;16.25;25.89
11605;BME280;5858;43.076;25.626;2023-03-14T15:02:03;98578.47;;;16.67;25.96
11605;BME280;5858;43.076;25.626;2023-03-14T15:04:53;98578.59;;;16.61;26.20
11605;BME280;5858;43.076;25.626;2023-03-14T15:07:36;98520.16;;;16.15;26.46
11605;BME280;5858;43.076;25.626;2023-03-14T15:10:22;98504.06;;;16.08;26.11
11605;BME280;5858;43.076;25.626;2023-03-14T15:13:07;98515.56;;;16.03;26.48
11605;BME280;5858;43.076;25.626;2023-03-14T15:15:35;98565.19;;;16.26;26.59
11605;BME280;5858;43.076;25.626;2023-03-14T15:18:12;98498.50;;;15.86;26.13
11605;BME280;5858;43.076;25.626;2023-03-14T15:20:49;98543.75;;;15.96;26.67
11605;BME280;5858;43.076;25.626;2023-03-14T15:23:18;98422.53;;;15.07;26.83
11605;BME280;5858;43.076;25.626;2023-03-14T15:25:49;98542.72;;;15.85;27.11
11605;BME280;5858;43.076;25.626;2023-03-14T15:28:23;98553.63;;;15.79;26.97
11605;BME280;5858;43.076;25.626;2023-03-14T15:30:57;98486.31;;;15.37;27.17
11605;BME280;5858;43.076;25.626;2023-03-14T15:33:28;98455.47;;;15.09;26.93
11605;BME280;5858;43.076;25.626;2023-03-14T15:35:59;98523.34;;;15.30;27.79
11605;BME280;5858;43.076;25.626;2023-03-14T15:38:30;98452.41;;;14.83;27.57
11605;BME280;5858;43.076;25.626;2023-03-14T15:40:58;98356.69;;;14.15;27.56
11605;BME280;5858;43.076;25.626;2023-03-14T15:43:26;98375.22;;;14.23;27.74
11605;BME280;5858;43.076;25.626;2023-03-14T15:45:54;98410.13;;;14.41;27.35
11605;BME280;5858;43.076;25.626;2023-03-14T15:48:24;98439.47;;;14.31;27.14
11605;BME280;5858;43.076;25.626;2023-03-14T15:50:51;98504.13;;;14.73;27.50
11605;BME280;5858;43.076;25.626;2023-03-14T15:53:19;98456.06;;;14.28;27.70
11605;BME280;5858;43.076;25.626;2023-03-14T15:55:46;98541.50;;;14.81;27.89
11605;BME280;5858;43.076;25.626;2023-03-14T15:58:16;98550.38;;;14.70;28.46
11605;BME280;5858;43.076;25.626;2023-03-14T16:00:46;98415.13;;;13.78;28.26
11605;BME280;5858;43.076;25.626;2023-03-14T16:03:14;98499.22;;;14.22;28.20
11605;BME280;5858;43.076;25.626;2023-03-14T16:05:56;98570.78;;;14.41;28.16
11605;BME280;5858;43.076;25.626;2023-03-14T16:08:27;98545.59;;;14.35;28.02
11605;BME280;5858;43.076;25.626;2023-03-14T16:10:59;98464.50;;;13.83;28.46
11605;BME280;5858;43.076;25.626;2023-03-14T16:13:30;98432.91;;;13.61;27.93
11605;BME280;5858;43.076;25.626;2023-03-14T16:16:01;98368.66;;;12.98;28.19
11605;BME280;5858;43.076;25.626;2023-03-14T16:18:31;98432.16;;;13.35;28.63
11605;BME280;5858;43.076;25.626;2023-03-14T16:21:00;98500.41;;;13.71;29.03
11605;BME280;5858;43.076;25.626;2023-03-14T16:23:28;98506.81;;;13.70;28.52
11605;BME280;5858;43.076;25.626;2023-03-14T16:25:56;98528.44;;;13.81;28.79
11605;BME280;5858;43.076;25.626;2023-03-14T16:28:24;98415.19;;;12.91;28.68
11605;BME280;5858;43.076;25.626;2023-03-14T16:30:52;98425.50;;;12.95;29.10
11605;BME280;5858;43.076;25.626;2023-03-14T16:33:27;98536.84;;;13.67;28.63
11605;BME280;5858;43.076;25.626;2023-03-14T16:35:58;98515.28;;;13.30;29.07
11605;BME280;5858;43.076;25.626;2023-03-14T16:38:30;98421.06;;;12.82;29.07
11605;BME280;5858;43.076;25.626;2023-03-14T16:41:02;98543.69;;;13.44;29.29
11605;BME280;5858;43.076;25.626;2023-03-14T16:43:30;98543.31;;;13.41;29.42
11605;BME280;5858;43.076;25.626;2023-03-14T16:46:02;98483.84;;;13.06;29.40
11605;BME280;5858;43.076;25.626;2023-03-14T16:48:31;98523.69;;;13.09;29.24
11605;BME280;5858;43.076;25.626;2023-03-14T16:51:02;98411.56;;;12.54;29.10
11605;BME280;5858;43.076;25.626;2023-03-14T16:53:29;98510.25;;;13.09;29.76
11605;BME280;5858;43.076;25.626;2023-03-14T16:55:58;98431.00;;;12.50;29.85
11605;BME280;5858;43.076;25.626;2023-03-14T16:58:33;98440.66;;;12.57;29.66
11605;BME280;5858;43.076;25.626;2023-03-14T17:01:16;98458.28;;;12.72;29.70
11605;BME280;5858;43.076;25.626;2023-03-14T17:03:49;98520.63;;;13.05;29.63
11605;BME280;5858;43.076;25.626;2023-03-14T17:06:20;98519.47;;;12.95;29.81
11605;BME280;5858;43.076;25.626;2023-03-14T17:08:49;98517.81;;;12.93;29.87
11605;BME280;5858;43.076;25.626;2023-03-14T17:11:16;98511.41;;;12.95;29.96
11605;BME280;5858;43.076;25.626;2023-03-14T17:13:44;98511.03;;;12.91;29.72
11605;BME280;5858;43.076;25.626;2023-03-14T17:16:11;98449.88;;;12.37;30.36
11605;BME280;5858;43.076;25.626;2023-03-14T17:18:41;98516.88;;;12.81;29.86
11605;BME280;5858;43.076;25.626;2023-03-14T17:21:14;98427.13;;;12.08;29.15
11605;BME280;5858;43.076;25.626;2023-03-14T17:23:43;98515.78;;;12.57;29.62
11605;BME280;5858;43.076;25.626;2023-03-14T17:26:11;98386.81;;;11.76;29.49
11605;BME280;5858;43.076;25.626;2023-03-14T17:28:43;98418.97;;;11.89;29.48
11605;BME280;5858;43.076;25.626;2023-03-14T17:31:55;98443.50;;;11.93;29.58
11605;BME280;5858;43.076;25.626;2023-03-14T17:34:25;98467.31;;;12.14;29.06
11605;BME280;5858;43.076;25.626;2023-03-14T17:36:55;98466.34;;;12.02;30.04
11605;BME280;5858;43.076;25.626;2023-03-14T17:39:28;98335.38;;;11.10;28.89
11605;BME280;5858;43.076;25.626;2023-03-14T17:42:04;98514.72;;;12.20;28.76
11605;BME280;5858;43.076;25.626;2023-03-14T17:44:32;98321.81;;;10.98;29.14
11605;BME280;5858;43.076;25.626;2023-03-14T17:47:02;98398.88;;;11.54;28.33
11605;BME280;5858;43.076;25.626;2023-03-14T17:49:32;98470.91;;;11.95;28.98
11605;BME280;5858;43.076;25.626;2023-03-14T17:52:01;98439.59;;;11.76;29.02
11605;BME280;5858;43.076;25.626;2023-03-14T17:54:28;98373.81;;;11.28;29.07
11605;BME280;5858;43.076;25.626;2023-03-14T17:56:56;98459.59;;;11.93;29.05
11605;BME280;5858;43.076;25.626;2023-03-14T17:59:25;98345.50;;;11.01;28.10
11605;BME280;5858;43.076;25.626;2023-03-14T18:01:53;98499.53;;;12.08;29.02
11605;BME280;5858;43.076;25.626;2023-03-14T18:04:22;98410.06;;;11.44;28.88
11605;BME280;5858;43.076;25.626;2023-03-14T18:06:49;98353.53;;;11.01;28.85
11605;BME280;5858;43.076;25.626;2023-03-14T18:09:38;98309.53;;;10.64;27.95
11605;BME280;5858;43.076;25.626;2023-03-14T18:12:16;98434.78;;;11.40;27.89
11605;BME280;5858;43.076;25.626;2023-03-14T18:14:59;98510.91;;;11.96;27.84
11605;BME280;5858;43.076;25.626;2023-03-14T18:17:28;98494.66;;;11.91;28.34
11605;BME280;5858;43.076;25.626;2023-03-14T18:19:58;98362.13;;;11.16;28.20
11605;BME280;5858;43.076;25.626;2023-03-14T18:22:26;98397.94;;;11.22;27.80
11605;BME280;5858;43.076;25.626;2023-03-14T18:24:57;98382.75;;;11.09;27.81
11605;BME280;5858;43.076;25.626;2023-03-14T18:27:29;98270.28;;;10.45;27.99
11605;BME280;5858;43.076;25.626;2023-03-14T18:30:12;98380.91;;;11.03;27.83
11605;BME280;5858;43.076;25.626;2023-03-14T18:32:40;98464.59;;;11.63;27.62
11605;BME280;5858;43.076;25.626;2023-03-14T18:35:22;98324.75;;;10.70;27.11
11605;BME280;5858;43.076;25.626;2023-03-14T18:37:57;98477.56;;;11.86;25.88
11605;BME280;5858;43.076;25.626;2023-03-14T19:07:41;98451.19;;;11.70;25.85
11605;BME280;5858;43.076;25.626;2023-03-14T19:17:26;98336.03;;;10.98;25.87
11605;BME280;5858;43.076;25.626;2023-03-14T19:20:28;98379.84;;;11.17;25.36
11605;BME280;5858;43.076;25.626;2023-03-14T19:23:07;98260.81;;;10.42;26.03
11605;BME280;5858;43.076;25.626;2023-03-14T19:25:42;98395.03;;;11.43;25.75
11605;BME280;5858;43.076;25.626;2023-03-14T19:28:30;98439.41;;;11.71;26.17
11605;BME280;5858;43.076;25.626;2023-03-14T19:34:25;98397.06;;;11.48;26.31
11605;BME280;5858;43.076;25.626;2023-03-14T19:36:53;98428.38;;;11.47;27.12
11605;BME280;5858;43.076;25.626;2023-03-14T19:39:28;98382.91;;;11.21;27.59
11605;BME280;5858;43.076;25.626;2023-03-14T19:42:15;98302.09;;;10.79;27.80
11605;BME280;5858;43.076;25.626;2023-03-14T19:44:58;98424.59;;;11.68;28.03
11605;BME280;5858;43.076;25.626;2023-03-14T19:47:31;98237.97;;;10.39;28.49
11605;BME280;5858;43.076;25.626;2023-03-14T19:50:36;98381.66;;;11.37;28.61
11605;BME280;5858;43.076;25.626;2023-03-14T19:53:51;98249.69;;;10.38;29.31
11605;BME280;5858;43.076;25.626;2023-03-14T19:56:35;98239.44;;;10.42;30.16
11605;BME280;5858;43.076;25.626;2023-03-14T20:02:29;98221.72;;;10.34;31.07
11605;BME280;5858;43.076;25.626;2023-03-14T20:05:10;98321.41;;;11.01;31.16
11605;BME280;5858;43.076;25.626;2023-03-14T20:07:57;98371.16;;;11.28;31.61
11605;BME280;5858;43.076;25.626;2023-03-14T20:12:12;98225.25;;;10.28;31.38
11605;BME280;5858;43.076;25.626;2023-03-14T20:13:55;98229.56;;;10.16;31.72
11605;BME280;5858;43.076;25.626;2023-03-14T20:17:00;98230.56;;;10.15;32.08
11605;BME280;5858;43.076;25.626;2023-03-14T20:19:57;98320.00;;;10.79;32.26
11605;BME280;5858;43.076;25.626;2023-03-14T20:23:08;98224.44;;;10.01;32.35
11605;BME280;5858;43.076;25.626;2023-03-14T20:25:42;98272.94;;;10.31;32.57